Time;durP1;ratioP1;P1;durP2;ratioP2;P2;SDS_P1;SDS_P2;PMS_P1;PMS_P2;Temp;Humidity;BMP_temperature;BMP_pressure;BME280_temperature;BME280_humidity;BME280_pressure;Samples;Min_cycle;Max_cycle;Signal;HPM_P1;HPM_P2
2022/06/04 00:00:41;;;;;;;3.58;1.52;;;;;;;17.84;50.56;101878.53;5023176;28;20519;-71
2022/06/04 00:03:07;;;;;;;7.40;1.83;;;;;;;17.87;50.78;101874.22;5021088;28;20041;-72
2022/06/04 00:05:38;;;;;;;2.28;1.70;;;;;;;17.85;51.20;101875.94;5019320;28;20033;-72
2022/06/04 00:08:06;;;;;;;3.20;1.75;;;;;;;17.81;50.97;101874.13;5018742;28;20033;-71
2022/06/04 00:16:11;;;;;;;3.08;1.65;;;;;;;17.52;51.03;101862.38;5019132;28;20045;-71
2022/06/04 00:18:38;;;;;;;3.45;1.80;;;;;;;17.40;51.55;101852.66;5039295;28;20153;-71
2022/06/04 00:21:04;;;;;;;5.97;1.75;;;;;;;17.36;51.61;101851.75;5024091;28;20076;-71
2022/06/04 00:23:29;;;;;;;3.38;1.67;;;;;;;17.39;51.19;101846.59;5020516;28;20680;-71
2022/06/04 00:25:58;;;;;;;2.25;1.80;;;;;;;17.39;51.15;101851.78;5021826;28;20467;-71
2022/06/04 00:28:25;;;;;;;2.47;1.77;;;;;;;17.36;51.09;101864.75;5021787;28;20149;-71
2022/06/04 00:30:52;;;;;;;3.15;1.75;;;;;;;17.51;50.98;101873.63;5019330;28;20597;-70
2022/06/04 00:33:18;;;;;;;4.13;1.70;;;;;;;17.47;50.89;101864.91;5019471;28;20044;-72
2022/06/04 00:35:45;;;;;;;4.25;1.67;;;;;;;17.42;50.83;101858.78;5023909;28;20037;-70
2022/06/04 00:38:14;;;;;;;4.50;2.17;;;;;;;17.34;50.26;101860.34;5017556;28;20021;-71
2022/06/04 00:41:06;;;;;;;3.35;1.65;;;;;;;17.46;50.34;101862.28;5018479;28;20357;-71
2022/06/04 00:43:49;;;;;;;3.42;1.50;;;;;;;17.36;50.64;101871.69;5008496;28;20041;-71
2022/06/04 00:46:40;;;;;;;2.67;1.50;;;;;;;17.41;50.24;101872.59;5015401;28;20048;-70
2022/06/04 00:49:07;;;;;;;5.15;1.90;;;;;;;17.33;50.32;101863.81;5022797;28;20033;-72
2022/06/04 00:51:33;;;;;;;3.13;1.75;;;;;;;17.26;50.64;101864.56;5022433;28;20129;-71
2022/06/04 00:53:59;;;;;;;5.95;1.90;;;;;;;17.14;50.78;101855.72;5015463;28;20045;-71
2022/06/04 00:56:27;;;;;;;4.70;1.70;;;;;;;17.14;50.71;101863.50;5023178;28;20045;-71
2022/06/04 00:59:24;;;;;;;2.40;1.50;;;;;;;17.26;50.45;101869.78;5021207;28;20038;-71
2022/06/04 01:02:14;;;;;;;3.83;1.85;;;;;;;17.21;50.71;101887.00;5021667;28;20045;-71
2022/06/04 01:05:17;;;;;;;6.57;2.00;;;;;;;17.16;50.64;101893.00;5023410;28;20029;-71
2022/06/04 01:08:24;;;;;;;4.20;1.90;;;;;;;17.12;50.68;101901.59;5017489;28;20018;-71
2022/06/04 01:11:08;;;;;;;4.47;1.60;;;;;;;17.08;50.83;101909.31;5022410;28;20136;-71
2022/06/04 01:13:39;;;;;;;3.35;1.80;;;;;;;16.99;51.22;101915.22;5020778;28;20108;-71
2022/06/04 01:16:04;;;;;;;2.85;1.65;;;;;;;17.00;51.20;101923.91;5018736;28;20109;-71
2022/06/04 01:18:41;;;;;;;2.47;1.80;;;;;;;17.07;51.18;101934.41;5017117;28;20124;-71
2022/06/04 01:21:17;;;;;;;4.13;2.22;;;;;;;17.09;50.99;101943.13;5013097;28;20041;-70
2022/06/04 01:24:10;;;;;;;4.28;1.50;;;;;;;17.02;50.63;101930.84;5019446;28;20100;-71
2022/06/04 01:26:47;;;;;;;3.40;1.65;;;;;;;16.80;50.79;101928.69;5020701;28;20033;-70
2022/06/04 01:29:17;;;;;;;2.25;1.60;;;;;;;16.70;51.54;101918.97;5018070;28;20036;-71
2022/06/04 01:31:57;;;;;;;4.43;1.85;;;;;;;16.72;51.78;101919.88;5021648;28;20345;-71
2022/06/04 01:34:42;;;;;;;3.92;1.77;;;;;;;16.68;51.85;101923.22;5017609;28;20024;-71
2022/06/04 01:37:16;;;;;;;3.10;2.15;;;;;;;16.68;51.72;101915.44;5023952;28;20041;-71
2022/06/04 01:42:33;;;;;;;5.18;1.90;;;;;;;16.70;52.37;101926.75;5026508;28;20558;-71
2022/06/04 01:45:04;;;;;;;3.65;1.55;;;;;;;16.65;51.88;101923.19;5025024;28;20076;-71
2022/06/04 01:47:32;;;;;;;3.70;1.90;;;;;;;16.62;52.02;101932.66;5022641;28;20099;-72
2022/06/04 01:50:01;;;;;;;5.60;1.90;;;;;;;16.57;52.04;101933.41;5021954;28;20021;-71
2022/06/04 01:52:37;;;;;;;3.65;1.83;;;;;;;16.56;51.75;101931.63;5023013;28;20037;-72
2022/06/04 01:55:21;;;;;;;3.90;1.80;;;;;;;16.49;51.68;101942.75;5011798;28;20037;-71
2022/06/04 01:57:50;;;;;;;5.30;2.00;;;;;;;16.46;51.97;101942.69;5024502;28;20357;-71
2022/06/04 02:00:23;;;;;;;2.60;1.55;;;;;;;16.35;52.16;101951.13;5022488;28;20510;-71
2022/06/04 02:03:18;;;;;;;5.32;2.33;;;;;;;16.37;51.87;101953.75;5019972;28;21178;-72
2022/06/04 02:05:46;;;;;;;4.22;1.90;;;;;;;16.23;52.35;101961.25;5013934;28;20060;-71
2022/06/04 02:08:16;;;;;;;3.28;1.63;;;;;;;16.29;52.76;101961.38;5023711;28;20067;-72
2022/06/04 02:10:49;;;;;;;4.03;1.65;;;;;;;16.23;52.92;101948.25;5022906;28;20048;-71
2022/06/04 02:13:15;;;;;;;6.55;2.13;;;;;;;16.21;52.54;101946.50;5023890;28;20033;-71
2022/06/04 02:15:58;;;;;;;3.83;1.80;;;;;;;16.26;52.60;101937.06;5024703;28;20037;-71
2022/06/04 02:18:24;;;;;;;3.55;2.00;;;;;;;16.14;52.74;101944.56;5029343;28;20057;-71
2022/06/04 02:20:50;;;;;;;4.63;2.08;;;;;;;16.06;52.54;101942.69;5024672;28;20031;-70
2022/06/04 02:23:16;;;;;;;5.15;1.77;;;;;;;16.11;52.60;101941.94;5024398;28;20033;-71
2022/06/04 02:25:42;;;;;;;3.05;2.10;;;;;;;16.04;52.50;101935.72;5021080;28;20033;-72
2022/06/04 02:28:07;;;;;;;4.00;1.75;;;;;;;15.95;52.64;101951.06;5016938;28;20111;-71
2022/06/04 02:31:18;;;;;;;5.03;1.80;;;;;;;16.02;52.55;101950.38;5020987;28;21953;-71
2022/06/04 02:34:22;;;;;;;5.25;1.77;;;;;;;15.97;52.60;101949.41;5011189;28;20033;-71
2022/06/04 02:37:02;;;;;;;3.72;1.85;;;;;;;15.96;52.46;101940.75;4993871;28;20100;-71
2022/06/04 02:39:49;;;;;;;5.78;2.00;;;;;;;15.86;52.80;101943.97;5021679;28;20033;-71
2022/06/04 02:42:17;;;;;;;5.25;2.25;;;;;;;15.80;53.18;101936.03;5023586;28;20028;-72
2022/06/04 02:44:55;;;;;;;5.27;1.80;;;;;;;15.85;53.31;101938.75;5023119;28;20040;-71
2022/06/04 02:47:29;;;;;;;2.60;2.00;;;;;;;15.74;53.22;101934.16;5026958;28;20033;-72
2022/06/04 02:50:10;;;;;;;7.45;2.15;;;;;;;15.78;52.88;101924.75;5025186;28;20033;-71
2022/06/04 02:52:36;;;;;;;4.63;2.17;;;;;;;15.62;54.00;101915.72;5025766;28;20029;-72
2022/06/04 02:55:07;;;;;;;4.25;2.22;;;;;;;15.56;54.07;101912.94;5025796;28;20150;-72
2022/06/04 02:57:37;;;;;;;4.93;2.30;;;;;;;15.48;54.36;101909.31;5023416;28;20025;-71
2022/06/04 03:00:04;;;;;;;4.53;2.72;;;;;;;15.41;54.78;101908.28;5019207;28;20495;-72
2022/06/04 03:02:32;;;;;;;4.47;2.40;;;;;;;15.42;54.81;101897.06;5013346;28;20111;-71
2022/06/04 03:05:11;;;;;;;4.55;2.08;;;;;;;15.34;54.90;101888.19;5019582;28;20432;-71
2022/06/04 03:07:39;;;;;;;3.85;2.20;;;;;;;15.37;55.35;101885.72;5025702;28;20033;-72
2022/06/04 03:10:11;;;;;;;8.27;2.50;;;;;;;15.33;55.06;101883.00;5021150;28;20025;-72
2022/06/04 03:12:37;;;;;;;6.20;2.50;;;;;;;15.20;55.80;101887.88;5025632;28;20055;-72
2022/06/04 03:15:03;;;;;;;6.28;2.40;;;;;;;15.23;56.27;101880.19;5021663;28;20034;-71
2022/06/04 03:17:29;;;;;;;5.75;2.47;;;;;;;15.26;56.02;101881.97;5018476;28;20444;-72
2022/06/04 03:19:54;;;;;;;5.43;2.60;;;;;;;15.35;55.88;101882.22;5023126;28;20058;-72
2022/06/04 03:22:20;;;;;;;5.32;2.65;;;;;;;15.22;56.20;101875.81;5022945;28;20049;-72
2022/06/04 03:24:45;;;;;;;4.80;2.42;;;;;;;15.24;56.46;101881.94;5023629;28;20037;-72
2022/06/04 03:27:10;;;;;;;5.00;2.70;;;;;;;15.25;56.65;101875.91;5023578;28;20133;-71
2022/06/04 03:29:36;;;;;;;4.97;2.70;;;;;;;15.26;56.86;101877.66;5020969;28;20033;-71
2022/06/04 03:32:01;;;;;;;5.68;2.78;;;;;;;15.17;56.91;101877.44;5007382;28;20049;-72
2022/06/04 03:34:27;;;;;;;7.18;2.67;;;;;;;15.09;57.20;101876.34;5021910;28;20037;-72
2022/06/04 03:36:52;;;;;;;4.57;2.83;;;;;;;15.17;57.29;101871.38;4986577;28;20030;-72
2022/06/04 03:39:17;;;;;;;8.80;2.90;;;;;;;15.17;57.21;101872.25;5018377;28;20124;-72
2022/06/04 03:41:43;;;;;;;7.15;2.80;;;;;;;15.10;57.51;101874.63;5021705;28;20431;-71
2022/06/04 03:44:09;;;;;;;7.18;3.10;;;;;;;15.09;57.61;101878.06;5023050;28;20120;-72
2022/06/04 03:46:34;;;;;;;7.20;2.80;;;;;;;15.07;58.10;101892.69;5025880;28;20029;-72
2022/06/04 03:49:00;;;;;;;4.93;3.10;;;;;;;15.09;57.77;101896.19;5019746;28;20156;-71
2022/06/04 03:51:28;;;;;;;8.27;3.17;;;;;;;15.14;57.93;101894.59;5023851;28;20145;-72
2022/06/04 03:53:54;;;;;;;8.93;2.83;;;;;;;15.14;58.02;101902.38;5034211;28;20036;-71
2022/06/04 03:56:19;;;;;;;5.47;3.05;;;;;;;15.17;58.08;101905.94;5019889;28;20034;-71
2022/06/04 03:58:45;;;;;;;4.00;2.72;;;;;;;15.23;58.01;101902.63;5018817;28;20039;-71
2022/06/04 04:01:16;;;;;;;5.32;3.03;;;;;;;15.23;57.93;101910.41;5024097;28;20033;-71
2022/06/04 04:03:41;;;;;;;5.55;3.35;;;;;;;15.14;58.35;101913.63;5024473;28;21008;-71
2022/06/04 04:06:12;;;;;;;7.03;3.00;;;;;;;15.20;58.47;101906.00;5019260;28;20029;-72
2022/06/04 04:08:37;;;;;;;8.88;2.80;;;;;;;15.32;58.27;101912.34;5016883;28;20175;-70
2022/06/04 04:11:05;;;;;;;5.80;3.10;;;;;;;15.27;58.51;101922.59;5017542;28;20752;-72
2022/06/04 04:13:30;;;;;;;6.90;3.42;;;;;;;15.23;58.36;101921.66;5023921;28;20071;-72
2022/06/04 04:15:56;;;;;;;6.90;3.25;;;;;;;15.19;58.92;101934.47;5021790;28;20116;-72
2022/06/04 04:18:21;;;;;;;4.65;3.03;;;;;;;15.14;59.26;101934.34;5024078;28;20057;-72
2022/06/04 04:20:48;;;;;;;6.90;2.90;;;;;;;15.11;59.83;101926.50;5020522;28;20099;-71
2022/06/04 04:23:14;;;;;;;6.18;3.42;;;;;;;15.02;59.95;101929.72;5021716;28;20768;-70
2022/06/04 04:25:39;;;;;;;5.80;3.55;;;;;;;15.08;59.99;101941.09;5021765;28;20044;-71
2022/06/04 04:28:06;;;;;;;7.32;3.47;;;;;;;14.95;59.92;101929.50;5025828;28;20461;-72
2022/06/04 04:30:34;;;;;;;6.00;3.63;;;;;;;14.83;61.04;101927.47;5024958;28;20079;-71
2022/06/04 04:33:00;;;;;;;7.45;3.55;;;;;;;14.81;61.29;101938.63;5019083;28;20455;-70
2022/06/04 04:35:28;;;;;;;6.15;3.58;;;;;;;14.80;61.57;101932.53;5020914;28;20095;-71
2022/06/04 04:37:54;;;;;;;9.90;3.90;;;;;;;14.84;61.45;101936.97;5032998;28;20053;-72
2022/06/04 04:40:22;;;;;;;6.55;3.63;;;;;;;14.78;62.15;101934.22;5003734;28;20041;-70
2022/06/04 04:42:48;;;;;;;8.43;3.75;;;;;;;14.81;61.86;101934.31;5015847;28;20029;-71
2022/06/04 04:45:17;;;;;;;9.15;3.70;;;;;;;14.84;61.83;101949.06;5017798;28;20022;-71
2022/06/04 04:47:44;;;;;;;7.30;3.50;;;;;;;14.87;62.05;101934.50;5020161;28;20037;-71
2022/06/04 04:50:35;;;;;;;9.98;3.70;;;;;;;14.90;61.69;101944.91;5022861;28;20491;-71
2022/06/04 04:53:11;;;;;;;7.13;3.63;;;;;;;14.83;62.53;101955.06;5019291;28;20044;-72
2022/06/04 04:55:38;;;;;;;7.28;3.58;;;;;;;14.82;62.41;101951.59;5019322;28;20033;-71
2022/06/04 04:58:04;;;;;;;9.13;3.95;;;;;;;14.82;62.70;101955.91;5024308;28;20033;-71
2022/06/04 05:00:30;;;;;;;9.20;4.15;;;;;;;14.81;62.69;101965.41;5021264;28;20060;-72
2022/06/04 05:02:57;;;;;;;8.23;4.30;;;;;;;14.82;62.83;101968.88;5021744;28;20104;-70
2022/06/04 05:05:22;;;;;;;8.80;4.05;;;;;;;14.83;62.88;101965.44;5019709;28;20121;-71
2022/06/04 05:07:48;;;;;;;8.05;4.13;;;;;;;14.72;63.06;101970.28;5020336;28;20109;-71
2022/06/04 05:10:14;;;;;;;7.65;4.35;;;;;;;14.68;63.58;101963.25;5021084;28;20029;-70
2022/06/04 05:12:39;;;;;;;6.22;3.80;;;;;;;14.74;63.83;101964.34;5023020;28;20468;-71
2022/06/04 05:15:05;;;;;;;8.27;4.28;;;;;;;14.76;63.45;101966.97;5026209;28;20095;-70
2022/06/04 05:17:31;;;;;;;7.75;4.47;;;;;;;14.70;63.96;101961.63;5019221;28;20045;-70
2022/06/04 05:19:56;;;;;;;7.78;4.30;;;;;;;14.68;64.40;101958.09;5022791;28;20076;-71
2022/06/04 05:22:22;;;;;;;6.90;3.97;;;;;;;14.58;64.56;101962.13;5025561;28;20479;-71
2022/06/04 05:24:47;;;;;;;10.25;4.32;;;;;;;14.61;64.50;101956.16;5024664;28;20085;-71
2022/06/04 05:27:13;;;;;;;9.48;4.45;;;;;;;14.62;64.31;101963.09;5026707;28;20034;-70
2022/06/04 05:29:39;;;;;;;12.63;4.65;;;;;;;14.59;64.86;101968.19;5025592;28;20399;-70
2022/06/04 05:32:06;;;;;;;8.75;4.47;;;;;;;14.55;65.03;101974.09;5024126;28;20105;-71
2022/06/04 05:34:33;;;;;;;8.50;5.03;;;;;;;14.48;65.20;101970.47;5023483;28;20074;-71
2022/06/04 05:36:59;;;;;;;9.35;4.80;;;;;;;14.51;65.34;101965.38;5026154;28;20088;-71
2022/06/04 05:39:25;;;;;;;9.65;4.82;;;;;;;14.50;65.50;101968.81;5022306;28;20033;-70
2022/06/04 05:41:51;;;;;;;9.93;4.63;;;;;;;14.59;65.42;101973.38;5024483;28;20372;-72
2022/06/04 05:44:17;;;;;;;10.13;5.00;;;;;;;14.52;65.58;101971.44;5021640;28;20056;-71
2022/06/04 05:46:44;;;;;;;11.32;4.80;;;;;;;14.57;65.61;101975.03;5031756;28;20033;-72
2022/06/04 05:49:11;;;;;;;10.23;4.93;;;;;;;14.63;65.59;101978.69;5027898;28;20025;-72
2022/06/04 05:51:39;;;;;;;9.95;5.30;;;;;;;14.53;65.96;101988.72;5023083;28;20065;-73
2022/06/04 05:54:05;;;;;;;9.63;5.25;;;;;;;14.51;66.05;101995.56;5028334;28;20454;-72
2022/06/04 05:56:33;;;;;;;7.68;5.13;;;;;;;14.51;66.20;102005.91;5026918;28;20025;-71
2022/06/04 05:59:03;;;;;;;10.45;5.15;;;;;;;14.58;66.15;102003.56;5021829;28;20099;-71
2022/06/04 06:01:31;;;;;;;;;;;;;;;14.76;64.88;102003.22;5027521;28;20026;-72
2022/06/04 06:03:57;;;;;;;14.77;5.20;;;;;;;14.59;65.82;101997.53;5034014;28;19924;-73
2022/06/04 06:06:26;;;;;;;10.77;5.53;;;;;;;14.63;66.55;102003.69;5025837;28;20041;-72
2022/06/04 06:08:52;;;;;;;;;;;;;;;14.71;65.86;101995.31;5033108;28;20022;-72
2022/06/04 06:11:19;;;;;;;9.35;5.30;;;;;;;14.65;65.94;101994.25;5030428;28;19948;-72
2022/06/04 06:13:45;;;;;;;8.18;4.78;;;;;;;14.62;66.00;102000.25;5024656;28;20072;-72
2022/06/04 06:16:25;;;;;;;12.35;5.50;;;;;;;14.64;66.13;102001.16;5029093;28;20480;-73
2022/06/04 06:18:51;;;;;;;14.27;5.70;;;;;;;14.73;66.05;102009.16;5025705;28;20054;-73
2022/06/04 06:21:20;;;;;;;7.10;5.30;;;;;;;14.69;65.88;102006.47;5029243;28;20036;-73
2022/06/04 06:23:46;;;;;;;9.27;5.25;;;;;;;14.76;65.75;102005.81;5028646;28;20024;-73
2022/06/04 06:26:32;;;;;;;11.88;5.55;;;;;;;14.74;65.44;102010.03;5018586;28;20112;-72
2022/06/04 06:29:00;;;;;;;11.05;5.40;;;;;;;14.65;66.12;102004.63;5030268;28;20017;-72
2022/06/04 06:31:28;;;;;;;10.35;5.45;;;;;;;14.66;66.26;102007.25;5031686;28;20473;-71
2022/06/04 06:33:54;;;;;;;11.85;5.80;;;;;;;14.68;66.44;101999.50;5028302;28;20116;-73
2022/06/04 06:36:20;;;;;;;9.93;5.90;;;;;;;14.74;66.08;102010.94;5029128;28;20040;-72
2022/06/04 06:38:47;;;;;;;7.55;5.22;;;;;;;14.84;66.00;102021.56;5026667;28;20030;-73
2022/06/04 06:41:15;;;;;;;11.75;6.13;;;;;;;14.80;66.26;102014.53;5026824;28;20375;-72
2022/06/04 06:43:46;;;;;;;12.13;6.03;;;;;;;14.73;66.50;102016.94;5025558;28;20591;-73
2022/06/04 06:46:32;;;;;;;10.63;5.93;;;;;;;14.75;66.53;102027.38;5025418;28;20284;-73
2022/06/04 06:49:01;;;;;;;11.27;5.70;;;;;;;14.72;66.43;102009.13;5014567;28;20025;-72
2022/06/04 06:51:39;;;;;;;12.80;6.10;;;;;;;14.88;65.93;102021.69;5023074;28;20033;-73
2022/06/04 06:54:05;;;;;;;12.38;6.18;;;;;;;14.93;65.95;102022.72;5028125;28;20033;-72
2022/06/04 06:56:33;;;;;;;10.00;6.00;;;;;;;14.86;65.97;102020.75;5029759;28;20025;-71
2022/06/04 06:59:01;;;;;;;11.40;6.45;;;;;;;14.86;66.22;102023.34;5028252;28;20032;-69
2022/06/04 07:01:27;;;;;;;12.63;6.10;;;;;;;14.86;66.16;102025.06;5026605;28;20369;-69
2022/06/04 07:03:55;;;;;;;11.13;6.35;;;;;;;14.90;65.84;102030.38;5031735;28;20032;-69
2022/06/04 07:06:34;;;;;;;12.70;5.80;;;;;;;14.92;66.03;102025.25;5032495;28;20270;-69
2022/06/04 07:09:02;;;;;;;10.65;6.18;;;;;;;14.99;65.97;102024.59;5024818;28;22803;-69
2022/06/04 07:11:28;;;;;;;11.88;6.38;;;;;;;14.97;65.85;102029.72;5027528;28;20071;-70
2022/06/04 07:13:53;;;;;;;10.38;6.53;;;;;;;14.97;65.79;102014.19;5031922;28;20033;-71
2022/06/04 07:16:19;;;;;;;12.60;6.22;;;;;;;15.07;65.72;102019.63;5029021;28;20369;-72
2022/06/04 07:18:44;;;;;;;9.60;6.07;;;;;;;15.15;65.60;102024.19;5022373;28;20042;-72
2022/06/04 07:21:10;;;;;;;10.60;6.22;;;;;;;15.14;65.48;102011.19;5026739;28;20503;-72
2022/06/04 07:23:36;;;;;;;14.23;6.63;;;;;;;15.23;65.43;102021.81;5018115;28;20041;-71
2022/06/04 07:26:03;;;;;;;9.40;6.50;;;;;;;15.27;65.36;102018.47;5023725;28;20017;-72
2022/06/04 07:28:29;;;;;;;7.97;6.22;;;;;;;15.38;65.80;102021.34;5030996;28;20059;-71
2022/06/04 07:30:54;;;;;;;10.05;5.60;;;;;;;15.45;65.24;102018.06;5027544;28;20423;-72
2022/06/04 07:33:21;;;;;;;11.45;6.55;;;;;;;15.51;64.51;102024.28;5026100;28;20066;-72
2022/06/04 07:35:50;;;;;;;11.48;6.20;;;;;;;15.53;64.35;102033.00;5031540;28;20196;-72
2022/06/04 07:38:17;;;;;;;10.48;6.00;;;;;;;15.57;64.37;102032.22;5026219;28;20080;-71
2022/06/04 07:40:44;;;;;;;10.15;5.65;;;;;;;15.60;64.02;102031.44;5028739;28;20140;-71
2022/06/04 07:43:11;;;;;;;10.75;6.60;;;;;;;15.62;64.06;102034.06;5025935;28;20029;-71
2022/06/04 07:45:36;;;;;;;11.50;6.32;;;;;;;15.61;64.21;102029.72;5026576;28;20162;-72
2022/06/04 07:48:03;;;;;;;11.55;6.57;;;;;;;15.66;63.87;102041.13;5028562;28;20650;-72
2022/06/04 07:50:29;;;;;;;12.70;6.35;;;;;;;15.60;63.72;102036.63;5030269;28;20033;-71
2022/06/04 07:52:56;;;;;;;15.63;6.70;;;;;;;15.63;64.00;102038.44;5026961;28;20037;-72
2022/06/04 07:55:22;;;;;;;12.85;6.70;;;;;;;15.70;64.01;102033.47;5024487;28;20472;-72
2022/06/04 07:57:48;;;;;;;9.95;6.03;;;;;;;15.67;63.91;102035.97;5016756;28;20086;-71
2022/06/04 08:00:14;;;;;;;12.30;6.47;;;;;;;15.67;63.92;102032.53;5030574;28;20036;-73
2022/06/04 08:02:42;;;;;;;10.10;6.38;;;;;;;15.66;64.08;102047.19;5028014;28;20029;-73
2022/06/04 08:05:08;;;;;;;10.88;6.35;;;;;;;15.72;63.87;102038.72;5026681;28;20038;-73
2022/06/04 08:07:33;;;;;;;10.60;6.30;;;;;;;15.75;63.56;102044.84;5028174;28;20395;-73
2022/06/04 08:09:59;;;;;;;12.30;7.05;;;;;;;15.77;63.84;102043.19;5026204;28;20033;-73
2022/06/04 08:12:29;;;;;;;12.82;6.78;;;;;;;15.81;63.85;102041.50;5027374;28;20041;-73
2022/06/04 08:14:55;;;;;;;9.82;6.55;;;;;;;15.86;63.50;102049.41;5028786;28;20033;-73
2022/06/04 08:17:23;;;;;;;9.77;6.50;;;;;;;15.84;63.68;102044.22;5022676;28;20052;-73
2022/06/04 08:19:49;;;;;;;13.27;6.47;;;;;;;15.86;64.11;102032.13;5023221;28;20068;-74
2022/06/04 08:22:14;;;;;;;13.43;7.03;;;;;;;15.91;63.70;102030.53;5026295;28;20139;-73
2022/06/04 08:24:40;;;;;;;10.25;6.25;;;;;;;15.92;63.41;102026.22;5028946;28;20028;-72
2022/06/04 08:27:06;;;;;;;8.90;6.35;;;;;;;15.98;63.07;102023.78;5026951;28;20030;-72
2022/06/04 08:29:34;;;;;;;9.85;6.57;;;;;;;15.97;62.85;102024.63;5023340;28;20112;-72
2022/06/04 08:32:02;;;;;;;11.32;6.68;;;;;;;16.01;63.05;102027.31;5015113;28;20047;-73
2022/06/04 08:34:28;;;;;;;13.55;6.97;;;;;;;15.98;63.01;102026.38;5024325;28;20030;-73
2022/06/04 08:36:53;;;;;;;8.55;6.40;;;;;;;16.08;63.27;102023.19;5026566;28;20534;-70
2022/06/04 08:39:19;;;;;;;12.68;6.60;;;;;;;16.13;62.98;102025.84;5026584;28;20074;-71
2022/06/04 08:42:03;;;;;;;13.32;6.72;;;;;;;16.18;63.40;102029.44;5027846;28;20053;-73
2022/06/04 08:44:34;;;;;;;11.07;6.75;;;;;;;16.21;63.66;102020.03;5027189;28;20061;-70
2022/06/04 08:47:33;;;;;;;10.10;6.43;;;;;;;16.27;62.83;102020.16;5021231;28;20072;-66
2022/06/04 08:50:11;;;;;;;10.65;6.53;;;;;;;16.35;62.68;102025.53;5033628;28;20592;-65
2022/06/04 08:52:44;;;;;;;9.95;6.78;;;;;;;16.40;62.86;102017.84;5029493;28;20132;-66
2022/06/04 08:58:12;;;;;;;9.30;6.32;;;;;;;16.52;62.78;102026.78;5031439;28;20044;-67
2022/06/04 09:01:02;;;;;;;13.85;6.93;;;;;;;16.60;62.75;102030.41;5031498;28;20038;-70
2022/06/04 09:03:59;;;;;;;10.48;7.10;;;;;;;16.67;62.82;102046.13;5028877;28;20040;-67
2022/06/04 09:06:33;;;;;;;12.52;6.97;;;;;;;16.73;62.19;102051.50;5024108;28;20025;-66
2022/06/04 09:09:21;;;;;;;13.48;6.63;;;;;;;16.79;62.41;102055.09;5024840;28;20026;-66
2022/06/04 09:12:19;;;;;;;11.80;7.30;;;;;;;16.90;62.19;102057.94;5025114;28;20060;-70
2022/06/04 09:14:54;;;;;;;13.35;7.15;;;;;;;16.98;61.74;102056.34;5023380;28;20022;-71
2022/06/04 09:17:31;;;;;;;11.90;7.07;;;;;;;16.98;61.18;102043.38;5024119;28;20468;-70
2022/06/04 09:19:58;;;;;;;10.75;7.07;;;;;;;16.96;61.46;102039.00;5030815;28;20128;-70
2022/06/04 09:22:33;;;;;;;14.32;6.78;;;;;;;17.05;61.63;102042.66;5026184;28;20099;-71
2022/06/04 09:24:58;;;;;;;10.77;7.05;;;;;;;17.10;62.10;102037.53;5029214;28;20025;-70
2022/06/04 09:27:55;;;;;;;10.13;6.90;;;;;;;17.21;61.86;102040.34;5030567;28;20476;-70
2022/06/04 09:30:29;;;;;;;9.48;6.70;;;;;;;17.29;61.31;102039.69;5030282;28;20357;-69
2022/06/04 09:33:23;;;;;;;14.52;7.25;;;;;;;17.33;61.25;102035.41;5033209;28;20450;-69
2022/06/04 09:35:48;;;;;;;11.32;8.18;;;;;;;17.37;60.56;102038.09;5025245;28;20523;-68
2022/06/04 09:38:23;;;;;;;10.30;7.15;;;;;;;17.47;61.23;102033.91;5011552;28;20033;-67
2022/06/04 09:40:56;;;;;;;10.48;7.22;;;;;;;17.53;61.24;102036.63;5016643;28;20036;-68
2022/06/04 09:43:21;;;;;;;14.23;7.28;;;;;;;17.62;60.43;102030.72;5026240;28;20109;-68
2022/06/04 09:45:52;;;;;;;10.40;7.28;;;;;;;17.73;60.23;102037.03;5020369;28;20152;-68
2022/06/04 09:48:35;;;;;;;11.05;6.60;;;;;;;17.87;60.30;102032.94;5026498;28;20079;-68
2022/06/04 09:51:04;;;;;;;9.65;7.10;;;;;;;17.97;59.62;102036.56;5028895;28;20026;-67
2022/06/04 09:53:32;;;;;;;;;;;;;;;18.06;59.53;102041.91;5023802;28;20043;-67
2022/06/04 09:56:14;;;;;;;14.13;7.90;;;;;;;18.06;59.48;102044.50;5027907;28;19924;-70
2022/06/04 09:58:46;;;;;;;10.95;7.25;;;;;;;18.14;59.18;102048.13;5029892;28;20575;-69
2022/06/04 10:01:14;;;;;;;12.18;7.75;;;;;;;18.16;58.88;102045.53;5031056;28;20086;-68
2022/06/04 10:03:40;;;;;;;11.52;7.28;;;;;;;18.15;58.62;102043.81;5030914;28;20032;-68
2022/06/04 10:06:10;;;;;;;12.63;7.85;;;;;;;18.19;58.42;102049.06;5027845;28;20108;-68
2022/06/04 10:11:50;;;;;;;12.95;7.82;;;;;;;18.45;58.83;102051.19;4952192;28;20062;-68
2022/06/04 10:14:26;;;;;;;10.68;8.00;;;;;;;18.60;58.33;102046.19;5014649;28;20076;-69
2022/06/04 10:16:51;;;;;;;10.25;6.78;;;;;;;18.78;58.11;102049.94;5029251;28;20117;-71
2022/06/04 10:19:21;;;;;;;9.45;7.30;;;;;;;18.88;57.12;102052.69;5028548;28;20136;-71
2022/06/04 10:21:49;;;;;;;8.65;7.07;;;;;;;18.95;56.72;102051.91;5029956;28;20044;-71
2022/06/04 10:24:23;;;;;;;12.98;7.38;;;;;;;18.99;55.92;102052.84;5026928;28;20039;-70
2022/06/04 10:26:54;;;;;;;11.25;6.78;;;;;;;19.01;55.90;102061.53;5023641;28;20033;-68
2022/06/04 10:29:38;;;;;;;12.88;7.90;;;;;;;19.07;56.05;102068.56;5031601;28;20056;-71
2022/06/04 10:32:29;;;;;;;10.80;6.72;;;;;;;19.08;56.03;102054.66;5027451;28;20025;-72
2022/06/04 10:35:18;;;;;;;13.45;7.28;;;;;;;19.14;56.80;102052.13;5025494;28;20022;-71
2022/06/04 10:37:52;;;;;;;;;;;;;;;19.21;57.25;102049.59;5028549;28;20555;-70
2022/06/04 10:40:31;;;;;;;8.55;6.38;;;;;;;19.25;56.17;102048.78;5023968;28;20585;-68
2022/06/04 10:43:11;;;;;;;15.93;8.00;;;;;;;19.21;55.84;102053.94;5028240;28;20028;-68
2022/06/04 10:45:55;;;;;;;14.52;7.85;;;;;;;19.24;55.57;102056.59;5025998;28;20044;-69
2022/06/04 10:48:43;;;;;;;9.32;7.22;;;;;;;19.28;56.17;102042.72;5018353;28;20405;-69
2022/06/04 10:51:32;;;;;;;11.55;7.28;;;;;;;19.39;54.99;102048.06;5033103;28;20028;-69
2022/06/04 10:54:20;;;;;;;13.38;7.65;;;;;;;19.46;55.09;102052.47;5027213;28;20480;-69
2022/06/04 10:56:51;;;;;;;9.48;6.70;;;;;;;19.50;55.44;102051.66;5028946;28;20030;-71
2022/06/04 10:59:22;;;;;;;10.30;7.68;;;;;;;19.51;54.48;102062.09;5030357;28;20014;-72
2022/06/04 11:02:14;;;;;;;10.05;7.00;;;;;;;19.51;54.73;102051.66;5023186;28;20056;-71
2022/06/04 11:04:45;;;;;;;11.73;7.55;;;;;;;19.50;55.95;102055.13;5014548;28;20091;-70
2022/06/04 11:07:32;;;;;;;10.35;7.63;;;;;;;19.51;55.80;102061.22;5019327;28;20496;-70
2022/06/04 11:09:58;;;;;;;11.63;7.35;;;;;;;19.53;56.10;102059.50;5026496;28;20128;-70
2022/06/04 11:12:47;;;;;;;12.63;7.15;;;;;;;19.58;55.77;102065.66;5027408;28;20041;-68
2022/06/04 11:15:16;;;;;;;10.35;7.30;;;;;;;19.54;54.48;102064.75;5027384;28;20103;-69
2022/06/04 11:17:57;;;;;;;10.32;7.30;;;;;;;19.56;54.53;102065.63;5024063;28;20034;-69
2022/06/04 11:20:29;;;;;;;15.60;8.07;;;;;;;19.53;54.83;102056.88;5024048;28;20063;-69
2022/06/04 11:23:25;;;;;;;12.25;8.23;;;;;;;19.53;54.97;102055.16;5014615;28;20033;-71
2022/06/04 11:26:00;;;;;;;10.38;7.35;;;;;;;19.54;54.59;102054.31;5029504;28;20060;-69
2022/06/04 11:28:27;;;;;;;10.65;7.35;;;;;;;19.62;54.56;102048.31;5027708;28;20087;-69
2022/06/04 11:31:07;;;;;;;8.80;6.75;;;;;;;19.65;54.66;102051.81;5026456;28;20119;-70
2022/06/04 11:33:40;;;;;;;10.90;6.78;;;;;;;19.70;54.74;102050.13;5030019;28;20379;-67
2022/06/04 11:36:18;;;;;;;9.90;7.15;;;;;;;19.73;54.51;102052.78;5023241;28;20029;-69
2022/06/04 11:39:10;;;;;;;10.57;7.10;;;;;;;19.77;54.51;102054.53;5026839;28;20025;-68
2022/06/04 11:41:48;;;;;;;12.18;7.13;;;;;;;19.83;53.76;102049.38;5028377;28;20288;-71
2022/06/04 11:44:31;;;;;;;10.10;7.22;;;;;;;19.88;54.17;102051.16;5026777;28;20549;-72
2022/06/04 11:47:15;;;;;;;8.45;6.43;;;;;;;19.94;54.51;102043.38;5031046;28;20025;-71
2022/06/04 11:49:51;;;;;;;10.45;6.95;;;;;;;20.00;53.92;102036.47;5026096;28;20136;-69
2022/06/04 11:52:25;;;;;;;9.63;6.70;;;;;;;20.16;53.57;102028.75;5024025;28;20111;-71
2022/06/04 11:55:09;;;;;;;10.80;6.93;;;;;;;20.34;53.88;102028.88;5027062;28;20726;-72
2022/06/04 11:58:13;;;;;;;9.82;7.65;;;;;;;20.45;53.42;102028.97;5024472;28;20033;-72